TRA1914 EKBI-EDDH
Flight info
| Callsign | TRA1914 |
|---|---|
| Flight time | 1h 2m |
| Altitude | 22000 |
| Route | ALS M852 ALASA/N0401F210 M852 EKERN T905 BOGMU BOGMU5A |
| Aircraft | B38M/M-SDE1FGHILORVWXY/HB1 |
Departure
| Time | 2026-04-30 18:50 |
|---|---|
| Airport | Billund Airport (EKBI) |
Arrival
| Time | 2026-04-30 19:53 |
|---|---|
| Airport | Hamburg Helmut Schmidt Airport (EDDH) |
| Time | Latitude | Longitude | Altitude | Speed | Heading |
|---|---|---|---|---|---|
| 2026-04-30 18:24 | 55.74536 | 9.14881 | 244 ft | 0 kts | 359° |
| 2026-04-30 18:41 | 55.74535 | 9.14881 | 244 ft | 3 kts | 359° |
| 2026-04-30 18:41 | 55.74515 | 9.14882 | 244 ft | 3 kts | 358° |
| 2026-04-30 18:42 | 55.74495 | 9.14882 | 244 ft | 3 kts | 5° |
| 2026-04-30 18:42 | 55.74457 | 9.14865 | 244 ft | 3 kts | 40° |
| 2026-04-30 18:42 | 55.74448 | 9.14841 | 244 ft | 0 kts | 73° |
| 2026-04-30 18:45 | 55.74449 | 9.14853 | 244 ft | 4 kts | 78° |
| 2026-04-30 18:45 | 55.74440 | 9.14954 | 244 ft | 10 kts | 131° |
| 2026-04-30 18:45 | 55.74365 | 9.14982 | 244 ft | 13 kts | 176° |
| 2026-04-30 18:46 | 55.74272 | 9.14991 | 244 ft | 11 kts | 177° |
| 2026-04-30 18:46 | 55.74200 | 9.15080 | 244 ft | 18 kts | 90° |
| 2026-04-30 18:46 | 55.74211 | 9.15366 | 244 ft | 28 kts | 88° |
| 2026-04-30 18:46 | 55.74220 | 9.15759 | 244 ft | 33 kts | 87° |
| 2026-04-30 18:47 | 55.74233 | 9.16154 | 244 ft | 31 kts | 89° |
| 2026-04-30 18:47 | 55.74244 | 9.16534 | 244 ft | 31 kts | 87° |
| 2026-04-30 18:47 | 55.74255 | 9.16912 | 244 ft | 29 kts | 86° |
| 2026-04-30 18:47 | 55.74265 | 9.17272 | 244 ft | 30 kts | 87° |
| 2026-04-30 18:48 | 55.74282 | 9.17648 | 244 ft | 29 kts | 86° |
| 2026-04-30 18:48 | 55.74289 | 9.17939 | 244 ft | 23 kts | 89° |
| 2026-04-30 18:48 | 55.74249 | 9.18123 | 244 ft | 16 kts | 149° |
| 2026-04-30 18:48 | 55.74143 | 9.18142 | 244 ft | 13 kts | 189° |
| 2026-04-30 18:49 | 55.74122 | 9.18099 | 244 ft | 0 kts | 268° |
| 2026-04-30 18:49 | 55.74122 | 9.18097 | 244 ft | 3 kts | 268° |
| 2026-04-30 18:49 | 55.74111 | 9.17634 | 244 ft | 77 kts | 266° |
| 2026-04-30 18:50 | 55.74067 | 9.16248 | 246 ft | 145 kts | 267° |
| 2026-04-30 18:50 | 55.73979 | 9.14221 | 507 ft | 178 kts | 266° |
| 2026-04-30 18:50 | 55.73883 | 9.12057 | 1082 ft | 171 kts | 268° |
| 2026-04-30 18:50 | 55.73931 | 9.09982 | 1068 ft | 166 kts | 286° |
| 2026-04-30 18:51 | 55.74431 | 9.08203 | 956 ft | 173 kts | 308° |
| 2026-04-30 18:51 | 55.75368 | 9.06608 | 1554 ft | 196 kts | 322° |
| 2026-04-30 18:51 | 55.76474 | 9.05047 | 2370 ft | 212 kts | 319° |
| 2026-04-30 18:51 | 55.77619 | 9.03210 | 3058 ft | 232 kts | 315° |
| 2026-04-30 18:52 | 55.78822 | 9.01104 | 3747 ft | 251 kts | 314° |
| 2026-04-30 18:52 | 55.79906 | 8.98640 | 4742 ft | 252 kts | 297° |
| 2026-04-30 18:52 | 55.80213 | 8.95630 | 5801 ft | 248 kts | 261° |
| 2026-04-30 18:52 | 55.79578 | 8.92772 | 6714 ft | 249 kts | 228° |
| 2026-04-30 18:53 | 55.78220 | 8.90844 | 7463 ft | 257 kts | 202° |
| 2026-04-30 18:53 | 55.76494 | 8.90091 | 8384 ft | 257 kts | 178° |
| 2026-04-30 18:53 | 55.74735 | 8.90652 | 9249 ft | 261 kts | 154° |
| 2026-04-30 18:53 | 55.73274 | 8.92524 | 10182 ft | 262 kts | 134° |
| 2026-04-30 18:54 | 55.71964 | 8.94785 | 11016 ft | 267 kts | 140° |
| 2026-04-30 18:54 | 55.70466 | 8.96844 | 11720 ft | 276 kts | 144° |
| 2026-04-30 18:54 | 55.68863 | 8.98770 | 12560 ft | 279 kts | 145° |
| 2026-04-30 18:54 | 55.67237 | 9.00706 | 13391 ft | 286 kts | 143° |
| 2026-04-30 18:55 | 55.65570 | 9.02785 | 14001 ft | 299 kts | 142° |
| 2026-04-30 18:55 | 55.62184 | 9.07140 | 15517 ft | 308 kts | 141° |
| 2026-04-30 18:55 | 55.60441 | 9.09410 | 16249 ft | 313 kts | 141° |
| 2026-04-30 18:56 | 55.56885 | 9.14067 | 17679 ft | 323 kts | 141° |
| 2026-04-30 18:56 | 55.55067 | 9.16450 | 18373 ft | 328 kts | 141° |
| 2026-04-30 18:56 | 55.53217 | 9.18873 | 19021 ft | 333 kts | 141° |
| 2026-04-30 18:57 | 55.49476 | 9.23768 | 20234 ft | 341 kts | 141° |
| 2026-04-30 18:57 | 55.47559 | 9.26274 | 20831 ft | 344 kts | 141° |
| 2026-04-30 18:57 | 55.45624 | 9.28796 | 21434 ft | 348 kts | 141° |
| 2026-04-30 18:58 | 55.41701 | 9.33902 | 22409 ft | 358 kts | 141° |
| 2026-04-30 18:58 | 55.39705 | 9.36496 | 22457 ft | 355 kts | 141° |
| 2026-04-30 18:58 | 55.37719 | 9.39072 | 22453 ft | 354 kts | 141° |
| 2026-04-30 18:59 | 55.33777 | 9.44177 | 22457 ft | 354 kts | 141° |
| 2026-04-30 19:00 | 55.27804 | 9.51887 | 22451 ft | 356 kts | 141° |
| 2026-04-30 19:00 | 55.25807 | 9.54459 | 22451 ft | 356 kts | 141° |
| 2026-04-30 19:00 | 55.21814 | 9.59590 | 22454 ft | 356 kts | 141° |
| 2026-04-30 19:01 | 55.17817 | 9.64715 | 22450 ft | 356 kts | 141° |
| 2026-04-30 19:01 | 55.15846 | 9.67237 | 22451 ft | 356 kts | 141° |
| 2026-04-30 19:02 | 55.11846 | 9.72347 | 22456 ft | 356 kts | 141° |
| 2026-04-30 19:02 | 55.07855 | 9.77430 | 22452 ft | 355 kts | 141° |
| 2026-04-30 19:03 | 55.03717 | 9.82689 | 22456 ft | 383 kts | 141° |
| 2026-04-30 19:03 | 54.99334 | 9.88243 | 22454 ft | 394 kts | 141° |
| 2026-04-30 19:04 | 54.94914 | 9.93828 | 22455 ft | 396 kts | 141° |
| 2026-04-30 19:04 | 54.89965 | 9.97896 | 22449 ft | 402 kts | 170° |
| 2026-04-30 19:05 | 54.84371 | 9.97159 | 22461 ft | 407 kts | 188° |
| 2026-04-30 19:05 | 54.78792 | 9.95460 | 22446 ft | 407 kts | 189° |
| 2026-04-30 19:06 | 54.73218 | 9.93665 | 22445 ft | 407 kts | 189° |
| 2026-04-30 19:06 | 54.70431 | 9.92776 | 22190 ft | 406 kts | 187° |
| 2026-04-30 19:06 | 54.64976 | 9.94161 | 21157 ft | 397 kts | 158° |
| 2026-04-30 19:07 | 54.59756 | 9.97030 | 20189 ft | 396 kts | 160° |
| 2026-04-30 19:07 | 54.57130 | 9.98418 | 19727 ft | 394 kts | 160° |
| 2026-04-30 19:08 | 54.51900 | 10.01151 | 18802 ft | 391 kts | 160° |
| 2026-04-30 19:08 | 54.46711 | 10.03849 | 17781 ft | 388 kts | 160° |
| 2026-04-30 19:08 | 54.44126 | 10.05190 | 17278 ft | 387 kts | 160° |
| 2026-04-30 19:09 | 54.38998 | 10.07846 | 16388 ft | 381 kts | 160° |
| 2026-04-30 19:09 | 54.36472 | 10.09152 | 16004 ft | 377 kts | 160° |
| 2026-04-30 19:09 | 54.33981 | 10.10439 | 15621 ft | 368 kts | 160° |
| 2026-04-30 19:10 | 54.29344 | 10.12837 | 15188 ft | 332 kts | 159° |
| 2026-04-30 19:10 | 54.25124 | 10.15012 | 14706 ft | 303 kts | 159° |
| 2026-04-30 19:11 | 54.23145 | 10.16030 | 14460 ft | 291 kts | 159° |
| 2026-04-30 19:11 | 54.19415 | 10.17943 | 13934 ft | 271 kts | 159° |
| 2026-04-30 19:11 | 54.17629 | 10.18857 | 13666 ft | 266 kts | 159° |
| 2026-04-30 19:12 | 54.15863 | 10.19759 | 13416 ft | 265 kts | 159° |
| 2026-04-30 19:12 | 54.14101 | 10.20658 | 13159 ft | 264 kts | 159° |
| 2026-04-30 19:12 | 54.12340 | 10.21556 | 12921 ft | 264 kts | 159° |
| 2026-04-30 19:13 | 54.08827 | 10.23344 | 12463 ft | 261 kts | 159° |
| 2026-04-30 19:13 | 54.05384 | 10.25096 | 12446 ft | 260 kts | 159° |
| 2026-04-30 19:13 | 54.03650 | 10.25976 | 12444 ft | 260 kts | 159° |
| 2026-04-30 19:14 | 54.01914 | 10.26856 | 12440 ft | 260 kts | 159° |
| 2026-04-30 19:14 | 54.00179 | 10.27734 | 12438 ft | 260 kts | 159° |
| 2026-04-30 19:14 | 53.98448 | 10.28610 | 12441 ft | 260 kts | 159° |
| 2026-04-30 19:14 | 53.96650 | 10.29047 | 12416 ft | 265 kts | 180° |
| 2026-04-30 19:15 | 53.94852 | 10.28286 | 12430 ft | 271 kts | 203° |
| 2026-04-30 19:15 | 53.92253 | 10.23708 | 12434 ft | 279 kts | 248° |
| 2026-04-30 19:15 | 53.91839 | 10.20510 | 12437 ft | 279 kts | 270° |
| 2026-04-30 19:16 | 53.92165 | 10.17319 | 12426 ft | 275 kts | 296° |
| 2026-04-30 19:16 | 53.93195 | 10.14701 | 12443 ft | 269 kts | 319° |
| 2026-04-30 19:16 | 53.96374 | 10.11727 | 12443 ft | 259 kts | 353° |
| 2026-04-30 19:17 | 53.98151 | 10.11535 | 12442 ft | 254 kts | 9° |
| 2026-04-30 19:17 | 54.01393 | 10.13525 | 12447 ft | 248 kts | 35° |
| 2026-04-30 19:17 | 54.02766 | 10.15273 | 12447 ft | 246 kts | 43° |
| 2026-04-30 19:18 | 54.04433 | 10.17887 | 12447 ft | 246 kts | 47° |
| 2026-04-30 19:18 | 54.06322 | 10.21479 | 12441 ft | 244 kts | 53° |
| 2026-04-30 19:18 | 54.07379 | 10.23752 | 12443 ft | 245 kts | 53° |
| 2026-04-30 19:19 | 54.08443 | 10.26018 | 12439 ft | 245 kts | 53° |
| 2026-04-30 19:19 | 54.09517 | 10.28274 | 12439 ft | 246 kts | 52° |
| 2026-04-30 19:19 | 54.11723 | 10.32731 | 12443 ft | 246 kts | 51° |
| 2026-04-30 19:20 | 54.12854 | 10.34924 | 12446 ft | 246 kts | 49° |
| 2026-04-30 19:20 | 54.13864 | 10.37250 | 12428 ft | 243 kts | 66° |
| 2026-04-30 19:20 | 54.14013 | 10.42865 | 12436 ft | 246 kts | 109° |
| 2026-04-30 19:21 | 54.13128 | 10.45360 | 12442 ft | 250 kts | 130° |
| 2026-04-30 19:21 | 54.10026 | 10.47972 | 12438 ft | 263 kts | 172° |
| 2026-04-30 19:22 | 54.06528 | 10.46211 | 12440 ft | 274 kts | 217° |
| 2026-04-30 19:22 | 54.02639 | 10.38955 | 12448 ft | 278 kts | 229° |
| 2026-04-30 19:23 | 53.99033 | 10.31266 | 12443 ft | 279 kts | 230° |
| 2026-04-30 19:24 | 53.97005 | 10.25738 | 12404 ft | 278 kts | 260° |
| 2026-04-30 19:24 | 53.97065 | 10.22511 | 12424 ft | 275 kts | 290° |
| 2026-04-30 19:24 | 53.99496 | 10.17990 | 12433 ft | 261 kts | 344° |
| 2026-04-30 19:25 | 54.04404 | 10.19619 | 12439 ft | 245 kts | 44° |
| 2026-04-30 19:26 | 54.06781 | 10.23756 | 12438 ft | 253 kts | 48° |
| 2026-04-30 19:26 | 54.09412 | 10.28167 | 12432 ft | 275 kts | 45° |
| 2026-04-30 19:26 | 54.10817 | 10.30436 | 12431 ft | 281 kts | 45° |
| 2026-04-30 19:27 | 54.13644 | 10.35121 | 12004 ft | 283 kts | 46° |
| 2026-04-30 19:27 | 54.15247 | 10.40969 | 11509 ft | 278 kts | 90° |
| 2026-04-30 19:28 | 54.14862 | 10.44138 | 11397 ft | 280 kts | 113° |
| 2026-04-30 19:28 | 54.12028 | 10.48654 | 11438 ft | 292 kts | 157° |
| 2026-04-30 19:29 | 54.07980 | 10.48477 | 11440 ft | 304 kts | 201° |
| 2026-04-30 19:29 | 54.06234 | 10.46444 | 11439 ft | 308 kts | 224° |
| 2026-04-30 19:30 | 54.02112 | 10.37974 | 11445 ft | 311 kts | 230° |
| 2026-04-30 19:30 | 53.99458 | 10.32223 | 11442 ft | 311 kts | 231° |
| 2026-04-30 19:31 | 53.96954 | 10.26221 | 11258 ft | 313 kts | 242° |
| 2026-04-30 19:31 | 53.96002 | 10.22888 | 10905 ft | 314 kts | 244° |
| 2026-04-30 19:31 | 53.94148 | 10.16205 | 10123 ft | 307 kts | 244° |
| 2026-04-30 19:32 | 53.93250 | 10.12966 | 9688 ft | 300 kts | 244° |
| 2026-04-30 19:32 | 53.92370 | 10.09781 | 9298 ft | 296 kts | 244° |
| 2026-04-30 19:32 | 53.91506 | 10.06646 | 8884 ft | 292 kts | 244° |
| 2026-04-30 19:32 | 53.90662 | 10.03577 | 8498 ft | 291 kts | 244° |
| 2026-04-30 19:33 | 53.89806 | 10.00454 | 8127 ft | 294 kts | 244° |
| 2026-04-30 19:33 | 53.88945 | 9.97308 | 7732 ft | 295 kts | 244° |
| 2026-04-30 19:33 | 53.88084 | 9.94152 | 7469 ft | 292 kts | 244° |
| 2026-04-30 19:33 | 53.87246 | 9.91079 | 7421 ft | 284 kts | 244° |
| 2026-04-30 19:34 | 53.86420 | 9.88041 | 7426 ft | 284 kts | 244° |
| 2026-04-30 19:34 | 53.85594 | 9.85002 | 7428 ft | 284 kts | 244° |
| 2026-04-30 19:34 | 53.84230 | 9.79947 | 7364 ft | 285 kts | 245° |
| 2026-04-30 19:35 | 53.83380 | 9.76915 | 7013 ft | 286 kts | 234° |
| 2026-04-30 19:35 | 53.81460 | 9.73996 | 6371 ft | 279 kts | 206° |
| 2026-04-30 19:35 | 53.79746 | 9.72470 | 5838 ft | 277 kts | 204° |
| 2026-04-30 19:35 | 53.78050 | 9.71019 | 5442 ft | 270 kts | 204° |
| 2026-04-30 19:36 | 53.76388 | 9.69604 | 5058 ft | 265 kts | 204° |
| 2026-04-30 19:36 | 53.75301 | 9.68687 | 4798 ft | 263 kts | 204° |
| 2026-04-30 19:36 | 53.72113 | 9.66029 | 4179 ft | 246 kts | 204° |
| 2026-04-30 19:37 | 53.70612 | 9.64791 | 4043 ft | 234 kts | 204° |
| 2026-04-30 19:37 | 53.69152 | 9.63590 | 4029 ft | 234 kts | 204° |
| 2026-04-30 19:37 | 53.67691 | 9.62387 | 4011 ft | 233 kts | 204° |
| 2026-04-30 19:37 | 53.65758 | 9.60797 | 4000 ft | 233 kts | 204° |
| 2026-04-30 19:38 | 53.64773 | 9.59988 | 4002 ft | 233 kts | 204° |
| 2026-04-30 19:38 | 53.63315 | 9.58793 | 3997 ft | 233 kts | 204° |
| 2026-04-30 19:38 | 53.61875 | 9.57616 | 3999 ft | 233 kts | 204° |
| 2026-04-30 19:38 | 53.60418 | 9.56423 | 3996 ft | 233 kts | 204° |
| 2026-04-30 19:39 | 53.58969 | 9.55221 | 3996 ft | 232 kts | 204° |
| 2026-04-30 19:39 | 53.57521 | 9.54018 | 3992 ft | 232 kts | 204° |
| 2026-04-30 19:39 | 53.56073 | 9.52817 | 3992 ft | 232 kts | 204° |
| 2026-04-30 19:39 | 53.54627 | 9.51619 | 3993 ft | 232 kts | 204° |
| 2026-04-30 19:40 | 53.53179 | 9.50418 | 3991 ft | 232 kts | 204° |
| 2026-04-30 19:40 | 53.51732 | 9.49216 | 3988 ft | 232 kts | 204° |
| 2026-04-30 19:40 | 53.50285 | 9.48018 | 3990 ft | 232 kts | 204° |
| 2026-04-30 19:40 | 53.48835 | 9.46817 | 3993 ft | 232 kts | 204° |
| 2026-04-30 19:41 | 53.47401 | 9.45631 | 3991 ft | 233 kts | 204° |
| 2026-04-30 19:41 | 53.45952 | 9.44433 | 3989 ft | 232 kts | 204° |
| 2026-04-30 19:41 | 53.44507 | 9.43236 | 3989 ft | 232 kts | 204° |
| 2026-04-30 19:41 | 53.43182 | 9.41703 | 3953 ft | 235 kts | 227° |
| 2026-04-30 19:42 | 53.42440 | 9.39268 | 3996 ft | 238 kts | 251° |
| 2026-04-30 19:42 | 53.41994 | 9.36588 | 3996 ft | 239 kts | 253° |
| 2026-04-30 19:42 | 53.41566 | 9.33897 | 3992 ft | 239 kts | 251° |
| 2026-04-30 19:42 | 53.40728 | 9.31569 | 3953 ft | 233 kts | 220° |
| 2026-04-30 19:43 | 53.39317 | 9.30364 | 3965 ft | 228 kts | 186° |
| 2026-04-30 19:43 | 53.37831 | 9.30830 | 3983 ft | 223 kts | 147° |
| 2026-04-30 19:43 | 53.36894 | 9.32794 | 3984 ft | 220 kts | 107° |
| 2026-04-30 19:44 | 53.36830 | 9.37913 | 3999 ft | 222 kts | 89° |
| 2026-04-30 19:44 | 53.36890 | 9.40490 | 3993 ft | 222 kts | 89° |
| 2026-04-30 19:44 | 53.36948 | 9.43073 | 3987 ft | 222 kts | 89° |
| 2026-04-30 19:44 | 53.37124 | 9.45635 | 3962 ft | 223 kts | 72° |
| 2026-04-30 19:45 | 53.37877 | 9.47915 | 3990 ft | 226 kts | 56° |
| 2026-04-30 19:45 | 53.38835 | 9.50012 | 3995 ft | 227 kts | 53° |
| 2026-04-30 19:45 | 53.39827 | 9.52070 | 3999 ft | 227 kts | 52° |
| 2026-04-30 19:45 | 53.40834 | 9.54112 | 3994 ft | 227 kts | 52° |
| 2026-04-30 19:46 | 53.41835 | 9.56128 | 3991 ft | 227 kts | 52° |
| 2026-04-30 19:46 | 53.42833 | 9.58131 | 3990 ft | 226 kts | 52° |
| 2026-04-30 19:46 | 53.43839 | 9.60152 | 3990 ft | 227 kts | 52° |
| 2026-04-30 19:46 | 53.44853 | 9.62189 | 3995 ft | 227 kts | 52° |
| 2026-04-30 19:47 | 53.45865 | 9.64221 | 3997 ft | 227 kts | 52° |
| 2026-04-30 19:47 | 53.46534 | 9.65565 | 3997 ft | 227 kts | 52° |
| 2026-04-30 19:47 | 53.47887 | 9.68282 | 3992 ft | 224 kts | 52° |
| 2026-04-30 19:47 | 53.48843 | 9.70205 | 3981 ft | 205 kts | 52° |
| 2026-04-30 19:48 | 53.49742 | 9.72012 | 3741 ft | 199 kts | 52° |
| 2026-04-30 19:48 | 53.50611 | 9.73760 | 3499 ft | 190 kts | 52° |
| 2026-04-30 19:48 | 53.51446 | 9.75439 | 3256 ft | 186 kts | 52° |
| 2026-04-30 19:48 | 53.52271 | 9.77102 | 3010 ft | 184 kts | 52° |
| 2026-04-30 19:49 | 53.53091 | 9.78751 | 2780 ft | 184 kts | 52° |
| 2026-04-30 19:49 | 53.54651 | 9.81893 | 2325 ft | 158 kts | 53° |
| 2026-04-30 19:49 | 53.55308 | 9.83220 | 2116 ft | 142 kts | 53° |
| 2026-04-30 19:50 | 53.55932 | 9.84479 | 1917 ft | 140 kts | 53° |
| 2026-04-30 19:50 | 53.56561 | 9.85750 | 1726 ft | 142 kts | 53° |
| 2026-04-30 19:50 | 53.57191 | 9.87019 | 1526 ft | 140 kts | 53° |
| 2026-04-30 19:50 | 53.57817 | 9.88283 | 1336 ft | 140 kts | 53° |
| 2026-04-30 19:51 | 53.58431 | 9.89526 | 1150 ft | 139 kts | 53° |
| 2026-04-30 19:51 | 53.59051 | 9.90778 | 960 ft | 139 kts | 52° |
| 2026-04-30 19:51 | 53.59671 | 9.92030 | 784 ft | 139 kts | 52° |
| 2026-04-30 19:51 | 53.60290 | 9.93280 | 598 ft | 138 kts | 52° |
| 2026-04-30 19:52 | 53.60908 | 9.94520 | 412 ft | 139 kts | 51° |
| 2026-04-30 19:52 | 53.61527 | 9.95771 | 203 ft | 140 kts | 52° |
| 2026-04-30 19:52 | 53.62129 | 9.96984 | 54 ft | 132 kts | 51° |
| 2026-04-30 19:52 | 53.62623 | 9.97984 | 44 ft | 68 kts | 50° |
| 2026-04-30 19:53 | 53.62737 | 9.98365 | 46 ft | 20 kts | 134° |
| 2026-04-30 19:53 | 53.62688 | 9.98440 | 49 ft | 0 kts | 135° |
| 2026-04-30 19:53 | 53.62687 | 9.98441 | 49 ft | 0 kts | 134° |
| 2026-04-30 19:53 | 53.62682 | 9.98452 | 49 ft | 2 kts | 131° |
| 2026-04-30 19:54 | 53.62678 | 9.98458 | 49 ft | 1 kts | 130° |
| 2026-04-30 19:54 | 53.62700 | 9.98568 | 49 ft | 22 kts | 52° |
| 2026-04-30 19:54 | 53.62837 | 9.98847 | 48 ft | 32 kts | 51° |
| 2026-04-30 19:54 | 53.62958 | 9.99092 | 49 ft | 19 kts | 50° |
| 2026-04-30 19:55 | 53.63023 | 9.99225 | 49 ft | 9 kts | 50° |
| 2026-04-30 19:55 | 53.63053 | 9.99290 | 49 ft | 2 kts | 54° |
| 2026-04-30 19:55 | 53.63060 | 9.99306 | 49 ft | 3 kts | 55° |
| 2026-04-30 19:55 | 53.63076 | 9.99349 | 49 ft | 2 kts | 57° |
| 2026-04-30 19:56 | 53.63076 | 9.99350 | 49 ft | 0 kts | 57° |
| 2026-04-30 19:56 | 53.63081 | 9.99362 | 49 ft | 4 kts | 57° |
| 2026-04-30 19:56 | 53.63139 | 9.99498 | 49 ft | 24 kts | 53° |
| 2026-04-30 19:57 | 53.63206 | 9.99660 | 48 ft | 0 kts | 54° |
| 2026-04-30 19:58 | 53.63207 | 9.99661 | 51 ft | 1 kts | 52° |
| 2026-04-30 19:58 | 53.63263 | 9.99741 | 50 ft | 18 kts | 43° |
| 2026-04-30 19:59 | 53.63362 | 9.99931 | 47 ft | 20 kts | 51° |
| 2026-04-30 19:59 | 53.63405 | 10.00017 | 51 ft | 7 kts | 49° |
| 2026-04-30 19:59 | 53.63320 | 10.00235 | 51 ft | 18 kts | 174° |
| 2026-04-30 20:00 | 53.63225 | 10.00248 | 47 ft | 7 kts | 175° |
| 2026-04-30 20:00 | 53.63178 | 10.00256 | 51 ft | 6 kts | 170° |
| 2026-04-30 20:00 | 53.63167 | 10.00305 | 51 ft | 8 kts | 90° |
| 2026-04-30 20:00 | 53.63167 | 10.00354 | 51 ft | 3 kts | 86° |
| 2026-04-30 20:01 | 53.63167 | 10.00357 | 51 ft | 0 kts | 86° |